Crew | Aerofun Virtual



 METAR AND TAF INFORMATION
METAR FOR EFOU
ADDS - METARS form results

(0813 UTC 22 July 2019)
Data provider http://aviationweather.gov/metar/data/
 
METAR text: EFOU 220750Z AUTO 14006KT 100V180 CAVOK 26/10 Q1015
Conditions at: EFOU (OULU/ULEABORG , FI) observed 0750 UTC 22 July 2019
Temperature: 26.0°C (79°F)
Dewpoint: 10.0°C (50°F) [RH = 37%]
Pressure (altimeter): 29.97 inches Hg (1015.0 mb)
Winds: from the SE (140 degrees) at 7 MPH (6 knots; 3.1 m/s)
Visibility: 6 or more miles (10+ km)
Ceiling: ceiling and visibility are OK
Clouds: unknown
Weather: no significant weather observed at this time

METAR text: EFOU 220720Z AUTO 14006KT CAVOK 25/12 Q1015
Conditions at: EFOU (OULU/ULEABORG , FI) observed 0720 UTC 22 July 2019
Temperature: 25.0°C (77°F)
Dewpoint: 12.0°C (54°F) [RH = 44%]
Pressure (altimeter): 29.97 inches Hg (1015.0 mb)
Winds: from the SE (140 degrees) at 7 MPH (6 knots; 3.1 m/s)
Visibility: 6 or more miles (10+ km)
Ceiling: ceiling and visibility are OK
Clouds: unknown
Weather: no significant weather observed at this time

Forecast for: EFOU (OULU/ULEABORG , FI)
Text: TAF EFOU 220525Z 2206/2306 13006KT CAVOK
Forecast period: 0600 UTC 22 July 2019 to 0600 UTC 23 July 2019
Forecast type: FROM: standard forecast or significant change
Winds: from the SE (130 degrees) at 7 MPH (6 knots; 3.1 m/s)
Visibility: 6 or more miles 10+ km)
Ceiling: unknown
Clouds: missing
Weather: NSW  (no significant weather)
Text: TEMPO 2208/2214 FEW050TCU
Forecast period: 0800 to 1400 UTC 22 July 2019
Forecast type: TEMPORARY: The following changes expected for less than half the time period
Visibility: missing
Ceiling: at least 12,000 feet AGL
Clouds: few clouds at 5000 feet AGL
Weather: no significant weather forecast for this period

 AIRPORT MAP

 RUNWAY INFORMATION
Runway 12 Runway length 8205 ft Runway width 197 ft
Runway elevation 47 ft Runway displaced threshold 0 ft Runway heading 121
Runway 30 Runway length 8205 ft Runway width 197 ft
Runway elevation 33 ft Runway displaced threshold 0 ft Runway heading 301

 AIRPORT FREQUENCIES
Type ATIS Name ATIS Frequency 135.45 MHZ
Type TWR Name TWR Frequency 124.4 MHZ

 AIRPORT NEAR NAVIGATION AIDS
Type NDB Name Laanila Frequency 350 KHZ
Type VOR-DME Name Oulu Frequency 113300 KHZ